createdAt,value
2019-01-05T00:02:29.603Z,36.90
2019-01-05T00:05:33.072Z,35.60
2019-01-05T00:08:32.608Z,36.90
2019-01-05T00:11:24.393Z,35.93
2019-01-05T00:14:14.611Z,36.87
2019-01-05T00:17:02.524Z,34.93
2019-01-05T00:19:57.523Z,36.27
2019-01-05T00:23:06.062Z,35.13
2019-01-05T00:25:53.021Z,37.33
2019-01-05T00:28:40.742Z,35.30
2019-01-05T00:31:44.626Z,35.97
2019-01-05T00:34:42.887Z,36.57
2019-01-05T00:37:29.077Z,35.33
2019-01-05T00:40:21.055Z,37.40
2019-01-05T00:43:08.436Z,36.30
2019-01-05T00:45:54.727Z,37.17
2019-01-05T00:48:48.478Z,35.37
2019-01-05T00:51:41.531Z,38.00
2019-01-05T00:54:50.180Z,36.80
2019-01-05T00:57:52.629Z,36.77
2019-01-05T01:00:39.815Z,36.77
2019-01-05T01:03:29.685Z,33.83
2019-01-05T01:06:21.312Z,35.50
2019-01-05T01:09:18.975Z,36.00
2019-01-05T01:12:10.379Z,35.20
2019-01-05T01:15:05.193Z,35.40
2019-01-05T01:17:52.896Z,35.67
2019-01-05T01:20:56.412Z,35.10
2019-01-05T01:23:48.023Z,34.67
2019-01-05T01:26:48.714Z,32.77
2019-01-05T01:29:35.622Z,33.77
2019-01-05T01:32:32.674Z,32.80
2019-01-05T01:35:19.791Z,33.10
2019-01-05T01:38:42.619Z,33.23
2019-01-05T01:41:38.402Z,35.30
2019-01-05T01:44:42.287Z,34.97
2019-01-05T01:47:46.171Z,34.03
2019-01-05T01:50:37.710Z,32.27
2019-01-05T01:53:30.667Z,33.43
2019-01-05T01:56:16.831Z,34.77
2019-01-05T01:59:06.663Z,33.27
2019-01-05T02:01:55.903Z,33.57
2019-01-05T02:04:40.459Z,33.10
2019-01-05T09:17:51.439Z,9.30
2019-01-05T09:21:32.572Z,8.90
2019-01-05T09:25:09.568Z,6.77
2019-01-05T09:28:49.476Z,5.63
2019-01-05T09:32:09.297Z,6.07
2019-01-05T09:35:53.115Z,5.97
2019-01-05T09:39:11.332Z,6.60
2019-01-05T09:42:45.248Z,7.03
2019-01-05T09:46:22.205Z,6.77
2019-01-05T09:49:52.044Z,6.67
2019-01-05T09:53:27.884Z,6.40
2019-01-05T09:57:10.565Z,6.10
2019-01-05T10:00:31.317Z,5.50
2019-01-05T10:04:26.021Z,6.13
2019-01-05T10:08:05.805Z,5.80
2019-01-05T10:11:28.582Z,5.30
2019-01-05T10:14:56.379Z,5.50
2019-01-05T10:18:20.848Z,5.80
2019-01-05T10:21:39.768Z,5.50
2019-01-05T10:25:09.904Z,4.90
2019-01-05T10:28:33.331Z,5.20
2019-01-05T10:32:17.040Z,5.53
2019-01-05T10:35:48.693Z,6.10
2019-01-05T10:39:20.639Z,5.90
2019-01-05T10:42:51.157Z,5.80
2019-01-05T10:46:19.662Z,6.40
2019-01-05T10:49:42.999Z,5.50
2019-01-05T10:53:26.379Z,5.50
2019-01-05T10:57:16.094Z,6.03
2019-01-05T11:00:55.063Z,5.53
2019-01-05T11:04:31.593Z,5.63
2019-01-05T11:08:02.617Z,4.70
2019-01-05T11:11:24.611Z,6.07
2019-01-05T11:15:13.728Z,5.30
2019-01-05T11:18:45.274Z,5.37
2019-01-05T11:22:18.284Z,5.07
2019-01-05T11:25:35.823Z,5.07
2019-01-05T11:28:47.074Z,5.07
2019-01-05T11:32:14.965Z,4.97
2019-01-05T11:35:50.983Z,6.07
2019-01-05T11:39:34.380Z,6.47
2019-01-05T11:43:15.854Z,5.40
2019-01-05T11:46:47.523Z,6.07
2019-01-05T11:50:02.410Z,6.30
2019-01-05T11:53:26.989Z,5.80
2019-01-05T11:56:49.536Z,6.13
2019-01-05T11:59:59.660Z,6.20
2019-01-05T12:03:17.532Z,5.97
2019-01-05T12:07:04.589Z,6.73
2019-01-05T12:10:33.824Z,5.87
2019-01-05T12:14:08.698Z,7.63
2019-01-05T12:17:32.840Z,6.40
2019-01-05T12:21:11.143Z,6.20
2019-01-05T12:24:40.345Z,6.97
2019-01-05T12:28:08.539Z,6.70
2019-01-05T12:31:38.302Z,6.63
2019-01-05T12:35:27.014Z,6.17
2019-01-05T12:38:49.315Z,6.10
2019-01-05T12:42:19.639Z,6.37
2019-01-05T12:45:44.847Z,7.13
2019-01-05T12:49:04.006Z,6.27
2019-01-05T12:52:47.067Z,6.87
2019-01-05T12:56:05.408Z,6.40
2019-01-05T12:59:34.528Z,6.03
2019-01-05T13:03:08.697Z,6.80
2019-01-05T13:06:57.936Z,6.63
2019-01-05T13:10:38.071Z,5.37
2019-01-05T13:14:14.347Z,5.80
2019-01-05T13:17:38.702Z,5.67
2019-01-05T13:21:24.375Z,6.40
2019-01-05T13:25:01.666Z,5.47
2019-01-05T13:28:24.763Z,6.20
2019-01-05T13:32:08.007Z,4.90
2019-01-05T13:35:49.672Z,5.77
2019-01-05T13:39:48.885Z,5.47
2019-01-05T13:43:14.223Z,5.27
2019-01-05T13:46:51.442Z,5.90
2019-01-05T13:50:11.536Z,5.30
2019-01-05T13:53:30.497Z,5.47
2019-01-05T13:56:12.353Z,5.13
2019-01-05T13:58:58.944Z,5.47
2019-01-05T14:01:45.031Z,4.97
2019-01-05T14:04:42.811Z,5.20
2019-01-05T14:07:31.039Z,5.00
2019-01-05T14:10:18.530Z,5.07
2019-01-05T14:13:25.427Z,5.23
2019-01-05T14:16:10.392Z,4.47
2019-01-05T14:19:07.614Z,4.77
2019-01-05T14:21:54.547Z,4.30
2019-01-05T14:24:53.030Z,4.53
2019-01-05T14:27:44.602Z,4.57
2019-01-05T14:30:31.586Z,3.83
2019-01-05T14:33:22.927Z,4.00
2019-01-05T14:36:11.409Z,4.43
2019-01-05T14:39:02.160Z,4.30
2019-01-05T14:41:36.250Z,3.93
2019-01-05T14:44:23.422Z,4.20
2019-01-05T14:47:10.856Z,3.37
2019-01-05T14:49:58.201Z,4.10
2019-01-05T14:52:52.766Z,4.17
2019-01-05T14:55:50.140Z,3.93
2019-01-05T14:58:44.447Z,4.53
2019-01-05T15:01:27.735Z,4.10
2019-01-05T15:04:14.778Z,4.23
2019-01-05T15:07:05.525Z,4.87
2019-01-05T15:09:57.268Z,4.33
2019-01-05T15:12:51.020Z,4.37
2019-01-05T15:15:45.451Z,4.93
2019-01-05T15:18:36.587Z,5.30
2019-01-05T15:21:29.576Z,4.70
2019-01-05T15:24:16.495Z,5.20
2019-01-05T15:27:08.096Z,5.17
2019-01-05T15:29:54.766Z,4.90
2019-01-05T15:33:01.530Z,4.53
2019-01-05T15:35:48.626Z,6.57
2019-01-05T15:38:37.184Z,5.70
2019-01-05T15:41:17.311Z,6.00
2019-01-05T15:44:04.251Z,4.80
2019-01-05T15:46:51.343Z,4.60
2019-01-05T15:49:45.907Z,4.87
2019-01-05T15:52:32.571Z,4.23
2019-01-05T15:55:19.767Z,4.90
2019-01-05T15:58:06.772Z,5.03
2019-01-05T16:00:53.472Z,4.87
2019-01-05T16:03:41.843Z,5.23
2019-01-05T16:06:43.015Z,5.57
2019-01-05T16:09:29.846Z,5.10
2019-01-05T16:12:33.273Z,5.43
2019-01-05T16:15:24.842Z,5.83
2019-01-05T16:18:18.935Z,7.30
2019-01-05T16:21:13.288Z,7.10
2019-01-05T16:24:04.559Z,5.33
2019-01-05T16:26:49.679Z,5.93
2019-01-05T16:29:50.315Z,5.80
2019-01-05T16:32:44.308Z,6.90
2019-01-05T16:35:32.546Z,6.50
2019-01-05T16:38:19.774Z,7.17
2019-01-05T16:41:08.299Z,6.90
2019-01-05T16:44:14.544Z,6.90
2019-01-05T16:47:01.413Z,7.50
2019-01-05T16:50:04.667Z,8.33
2019-01-05T16:52:55.759Z,8.47
2019-01-05T16:55:38.264Z,7.97
2019-01-05T16:58:44.758Z,8.00
2019-01-05T17:01:33.070Z,8.27
2019-01-05T17:04:30.566Z,11.87
2019-01-05T17:07:36.776Z,9.63
2019-01-05T17:10:40.270Z,8.37
2019-01-05T17:13:28.513Z,8.40
2019-01-05T17:16:23.564Z,9.80
2019-01-05T17:19:10.766Z,7.57
2019-01-05T17:21:57.396Z,8.60
2019-01-05T17:24:51.788Z,9.43
2019-01-05T17:27:50.992Z,9.17
2019-01-05T17:30:37.558Z,8.87
2019-01-05T17:33:40.781Z,7.80
2019-01-05T17:36:27.464Z,7.80
2019-01-05T17:39:15.092Z,9.53
2019-01-05T17:42:01.994Z,10.10
2019-01-05T17:45:05.794Z,8.90
2019-01-05T17:48:00.405Z,8.63
2019-01-05T17:50:54.538Z,8.30
2019-01-05T17:53:48.804Z,7.83
2019-01-05T17:56:43.222Z,8.10
2019-01-05T17:59:46.563Z,8.37
2019-01-05T18:02:28.662Z,8.70
2019-01-05T18:05:29.309Z,8.30
2019-01-05T18:08:16.812Z,8.23
2019-01-05T18:10:56.313Z,8.73
2019-01-05T18:14:02.929Z,8.43
2019-01-05T18:17:03.421Z,8.00
2019-01-05T18:20:07.003Z,8.47
2019-01-05T18:23:02.773Z,8.10
2019-01-05T18:25:51.392Z,8.33
2019-01-05T18:28:52.078Z,7.93
2019-01-05T18:31:49.611Z,7.60
2019-01-05T18:34:37.952Z,8.27
2019-01-05T18:37:32.505Z,7.03
2019-01-05T18:40:30.127Z,7.87
2019-01-05T18:43:19.075Z,8.57
2019-01-05T18:46:22.889Z,8.00
2019-01-05T18:49:01.083Z,8.37
2019-01-05T18:52:05.100Z,7.63
2019-01-05T18:54:53.349Z,8.47
2019-01-05T18:57:50.910Z,8.60
2019-01-05T19:00:39.183Z,8.43
2019-01-05T19:03:26.007Z,7.90
2019-01-05T19:06:14.296Z,7.63
2019-01-05T19:09:01.352Z,7.40
2019-01-05T19:12:08.539Z,7.40
2019-01-05T19:14:50.629Z,7.80
2019-01-05T19:17:44.982Z,7.30
2019-01-05T19:20:39.448Z,7.90
2019-01-05T19:23:26.358Z,7.33
2019-01-05T19:26:33.424Z,7.73
2019-01-05T19:29:37.406Z,8.03
2019-01-05T19:32:32.232Z,7.90
2019-01-05T19:35:14.341Z,7.33
2019-01-05T19:38:07.474Z,7.63
2019-01-05T19:40:56.091Z,8.07
2019-01-05T19:43:42.995Z,7.40
2019-01-05T19:46:27.291Z,8.73
2019-01-05T19:49:14.066Z,8.97
2019-01-05T19:52:20.374Z,8.80
2019-01-05T19:55:14.759Z,8.77
2019-01-05T19:58:01.671Z,9.00
2019-01-05T20:00:48.836Z,9.03
2019-01-05T20:03:46.719Z,9.00
2019-01-05T20:06:43.756Z,8.67
2019-01-05T20:09:30.515Z,8.43
2019-01-05T20:12:17.803Z,9.50
2019-01-05T20:15:04.881Z,9.50
2019-01-05T20:17:52.055Z,9.00
2019-01-05T20:20:39.291Z,8.93
2019-01-05T20:23:31.116Z,9.23
2019-01-05T20:26:18.679Z,9.73
2019-01-05T20:29:13.267Z,10.63
2019-01-05T20:32:04.327Z,10.13
2019-01-05T20:35:12.454Z,10.70
2019-01-05T20:38:22.765Z,10.43
2019-01-05T20:41:17.114Z,9.97
2019-01-05T20:44:20.718Z,11.23
2019-01-05T20:47:13.247Z,10.63
2019-01-05T20:50:20.127Z,12.17
2019-01-05T20:53:08.357Z,11.27
2019-01-05T20:55:57.750Z,12.33
2019-01-05T20:58:49.260Z,12.87
2019-01-05T21:01:36.387Z,13.60
2019-01-05T21:04:21.367Z,14.20
2019-01-05T21:07:23.699Z,13.00
2019-01-05T21:10:17.595Z,13.03
2019-01-05T21:13:24.027Z,12.20
2019-01-05T21:16:10.719Z,12.73
2019-01-05T21:19:14.031Z,13.27
2019-01-05T21:22:01.673Z,13.10
2019-01-05T21:24:51.977Z,12.30
2019-01-05T21:27:46.417Z,12.80
2019-01-05T21:30:33.771Z,13.30
2019-01-05T21:33:37.327Z,11.83
2019-01-05T21:36:25.735Z,12.60
2019-01-05T21:39:12.686Z,12.47
2019-01-05T21:41:59.468Z,12.30
2019-01-05T21:45:02.920Z,11.67
2019-01-05T21:48:23.780Z,11.97
2019-01-05T21:51:22.990Z,11.13
2019-01-05T21:54:14.010Z,10.87
2019-01-05T21:57:01.281Z,10.57
2019-01-05T21:59:50.552Z,12.20
2019-01-05T22:02:35.682Z,11.10
2019-01-05T22:05:22.840Z,13.30
2019-01-05T22:08:10.068Z,13.07
2019-01-05T22:10:55.807Z,11.07
2019-01-05T22:13:47.912Z,11.87
2019-01-05T22:16:34.865Z,12.60
2019-01-05T22:19:45.715Z,11.63
2019-01-05T22:22:32.364Z,10.53
2019-01-05T22:25:29.959Z,12.10
2019-01-05T22:28:13.380Z,10.63
2019-01-05T22:31:04.451Z,11.20
2019-01-05T22:33:51.235Z,11.37
2019-01-05T22:36:40.454Z,11.07
2019-01-05T22:39:31.803Z,10.63
2019-01-05T22:42:22.843Z,11.40
2019-01-05T22:45:09.027Z,10.20
2019-01-05T22:48:03.635Z,11.10
2019-01-05T22:50:50.724Z,11.88
2019-01-05T22:53:37.920Z,10.73
2019-01-05T22:56:29.435Z,11.37
2019-01-05T22:59:35.795Z,9.83
2019-01-05T23:02:22.788Z,9.63
2019-01-05T23:05:11.007Z,9.43
2019-01-05T23:08:08.659Z,10.47
2019-01-05T23:10:55.886Z,9.60
2019-01-05T23:13:56.238Z,9.00
2019-01-05T23:17:06.145Z,8.67
2019-01-05T23:19:55.694Z,8.77
2019-01-05T23:22:59.360Z,10.23
2019-01-05T23:25:46.554Z,8.60
2019-01-05T23:28:44.615Z,9.90
2019-01-05T23:31:35.667Z,9.30
2019-01-05T23:34:42.348Z,10.30
2019-01-05T23:37:33.928Z,10.40
2019-01-05T23:40:28.529Z,8.30
2019-01-05T23:43:15.750Z,8.50
2019-01-05T23:46:07.158Z,8.03
2019-01-05T23:48:54.375Z,9.20
2019-01-05T23:51:48.872Z,7.77
2019-01-05T23:54:35.843Z,8.13
2019-01-05T23:57:23.031Z,8.67
